Temp: 9.6°C   Baro: 1017.5mb
  Wind: 10.1mph   Dir: W (271°)
  Rain: 0.0mm (0.0mm/hr)
  Sun: 299W/m2  Humidity: 69%

Historic data

Bath Spa Weather Station Historical Data
Daily Summary for February 29, 2024 Units:  Metric    English   Both
Daily Weekly Monthly Yearly Custom
  High: Low: Average:
Temperature: 9.9 °C 2.9 °C 7.3 °C
Dew Point: 8.5 °C 1 °C 5.5 °C
Humidity: 95% 79% 89%
Wind Speed: 19km/h 0km/h 6.8km/h
Wind Gust: 35.4km/h - -
Wind- - WSW
Pressure: 1009.4 hPa 1000.9 hPa -
Precipitation: 3.3 mm    
Historical Graphs
 
 
Tabular Data for February 29, 2024
Time Temperature Dew Point Pressure Wind Wind Speed Wind Gust Humidity Rainfall Rate (Hourly) solar
00:09 9.9 °C 8.3 °C 1009.4 hPa South 9.7 km/h 27.4 km/h 90% 0 mm 0 W/m2
00:14 9.8 °C 8.2 °C 1009.4 hPa SSW 9.5 km/h 16.1 km/h 90% 0 mm 0 W/m2
00:19 9.8 °C 8.2 °C 1009 hPa South 7.9 km/h 24.1 km/h 90% 0 mm 0 W/m2
00:24 9.9 °C 8.3 °C 1009.4 hPa SW 10.6 km/h 20.9 km/h 90% 0 mm 0 W/m2
00:29 9.8 °C 8.2 °C 1009 hPa SW 11.4 km/h 25.7 km/h 90% 0 mm 0 W/m2
00:34 9.8 °C 8.3 °C 1009 hPa SSW 11.9 km/h 29 km/h 90% 0 mm 0 W/m2
00:39 9.9 °C 8.3 °C 1009 hPa SW 12.6 km/h 29 km/h 90% 0 mm 0 W/m2
00:44 9.9 °C 8.3 °C 1009 hPa South 19 km/h 29 km/h 90% 0 mm 0 W/m2
00:49 9.9 °C 8.3 °C 1008.7 hPa SSW 12.6 km/h 22.5 km/h 90% 0 mm 0 W/m2
00:54 9.9 °C 8.3 °C 1008.7 hPa SSW 16.9 km/h 29 km/h 90% 0 mm 0 W/m2
00:59 9.9 °C 8.3 °C 1008.7 hPa SSW 18.3 km/h 35.4 km/h 90% 0 mm 0 W/m2
01:04 9.9 °C 8.3 °C 1008.7 hPa SSW 13.5 km/h 25.7 km/h 90% 0 mm 0 W/m2
01:09 9.9 °C 8.3 °C 1009 hPa SSW 12.1 km/h 32.2 km/h 90% 0 mm 0 W/m2
01:14 9.9 °C 8.3 °C 1008.7 hPa SSW 15 km/h 27.4 km/h 90% 0 mm 0 W/m2
01:19 9.9 °C 8.3 °C 1008.7 hPa SW 12.7 km/h 27.4 km/h 90% 0 mm 0 W/m2
01:24 9.9 °C 8.3 °C 1008.7 hPa SSW 14.8 km/h 27.4 km/h 90.2% 0 mm 0 W/m2
01:29 9.9 °C 8.3 °C 1008.7 hPa SSW 10.9 km/h 19.3 km/h 90% 0 mm 0 W/m2
01:34 9.9 °C 8.3 °C 1008.7 hPa SSW 11.9 km/h 20.9 km/h 90.2% 0 mm 0 W/m2
01:39 9.9 °C 8.5 °C 1008.7 hPa SSW 8.5 km/h 22.5 km/h 91% 0 mm 0 W/m2
01:44 9.9 °C 8.5 °C 1008.4 hPa SW 7.9 km/h 16.1 km/h 91% 0 mm 0 W/m2
01:49 9.9 °C 8.5 °C 1008.4 hPa SW 13.2 km/h 20.9 km/h 91% 0 mm 0 W/m2
01:54 9.8 °C 8.4 °C 1008.4 hPa SSW 8 km/h 27.4 km/h 91% 0 mm 0 W/m2
01:59 9.8 °C 8.4 °C 1008.4 hPa SSW 4.7 km/h 16.1 km/h 91% 0 mm 0 W/m2
02:04 9.7 °C 8.3 °C 1008.4 hPa SSW 5.3 km/h 19.3 km/h 91% 0 mm 0 W/m2
02:09 9.7 °C 8.3 °C 1008 hPa SSW 9.2 km/h 17.7 km/h 91% 0 mm 0 W/m2
02:14 9.7 °C 8.3 °C 1008 hPa SSW 8.2 km/h 24.1 km/h 91.4% 0 mm 0 W/m2
02:19 9.6 °C 8.4 °C 1008 hPa SSW 5.8 km/h 16.1 km/h 92% 0 mm 0 W/m2
02:24 9.6 °C 8.4 °C 1007.7 hPa SW 7.6 km/h 16.1 km/h 92% 0 mm 0 W/m2
02:29 9.6 °C 8.4 °C 1007.7 hPa SSW 6.1 km/h 16.1 km/h 92% 0 mm 0 W/m2
02:34 9.6 °C 8.4 °C 1007.7 hPa SW 11.9 km/h 19.3 km/h 92% 0.25 mm 0 W/m2
02:39 9.6 °C 8.4 °C 1007.7 hPa SW 8.7 km/h 16.1 km/h 92% 0.25 mm 0 W/m2
02:44 9.6 °C 8.4 °C 1007.3 hPa SSW 10 km/h 17.7 km/h 92% 0.25 mm 0 W/m2
02:49 9.6 °C 8.4 °C 1007.3 hPa SSW 5.5 km/h 14.5 km/h 92% 0.25 mm 0 W/m2
02:54 9.6 °C 8.4 °C 1007.3 hPa SSW 7.9 km/h 22.5 km/h 92% 0.25 mm 0 W/m2
02:59 9.6 °C 8.4 °C 1007.3 hPa SSW 5.8 km/h 17.7 km/h 92% 0.25 mm 0 W/m2
03:04 9.6 °C 8.5 °C 1007 hPa SSW 14.2 km/h 20.9 km/h 92.8% 0.25 mm 0 W/m2
03:09 9.6 °C 8.4 °C 1007 hPa SSW 13.8 km/h 24.1 km/h 92.4% 0.25 mm 0 W/m2
03:14 9.6 °C 8.4 °C 1007 hPa SW 9 km/h 24.1 km/h 92% 0.25 mm 0 W/m2
03:19 9.6 °C 8.4 °C 1007 hPa SSW 9.7 km/h 14.5 km/h 92.2% 0.25 mm 0 W/m2
03:24 9.6 °C 8.4 °C 1006.7 hPa SSW 9.5 km/h 19.3 km/h 92.6% 0.25 mm 0 W/m2
03:29 9.7 °C 8.5 °C 1006.7 hPa SSW 11.3 km/h 22.5 km/h 92.6% 0.25 mm 0 W/m2
03:34 9.7 °C 8.5 °C 1006.7 hPa SSW 6.4 km/h 17.7 km/h 92% 0 mm 0 W/m2
03:39 9.7 °C 8.5 °C 1006.3 hPa South 11.3 km/h 19.3 km/h 92% 0 mm 0 W/m2
03:44 9.7 °C 8.5 °C 1006.3 hPa SSW 9.7 km/h 20.9 km/h 92% 0 mm 0 W/m2
03:49 9.7 °C 8.5 °C 1006.3 hPa SSW 12.9 km/h 24.1 km/h 92% 0 mm 0 W/m2
03:54 9.7 °C 8.5 °C 1006.3 hPa SSW 10.1 km/h 25.7 km/h 92% 0 mm 0 W/m2
03:59 9.6 °C 8.4 °C 1006.3 hPa SSW 8.2 km/h 17.7 km/h 92% 0 mm 0 W/m2
04:04 9.6 °C 8.4 °C 1006.3 hPa SSW 9 km/h 20.9 km/h 92% 0 mm 0 W/m2
04:09 9.6 °C 8.3 °C 1006.3 hPa SSW 8.2 km/h 12.9 km/h 92% 0 mm 0 W/m2
04:14 9.5 °C 8.3 °C 1006 hPa SSW 6.6 km/h 14.5 km/h 92% 0 mm 0 W/m2
04:19 9.4 °C 8.2 °C 1006 hPa South 9.5 km/h 17.7 km/h 92% 0 mm 0 W/m2
04:24 9.4 °C 8.2 °C 1006 hPa SSW 5.8 km/h 16.1 km/h 92% 0 mm 0 W/m2
04:29 9.4 °C 8.2 °C 1006 hPa SSW 5.8 km/h 12.9 km/h 92% 0 mm 0 W/m2
04:34 9.3 °C 8.2 °C 1006 hPa SSW 7.1 km/h 17.7 km/h 93% 0 mm 0 W/m2
04:39 9.3 °C 8.3 °C 1005.6 hPa SSW 4.5 km/h 14.5 km/h 93% 0 mm 0 W/m2
04:44 9.3 °C 8.2 °C 1005.6 hPa SSW 7.9 km/h 14.5 km/h 93% 0.25 mm 0 W/m2
04:49 9.3 °C 8.2 °C 1005.6 hPa SSW 2.9 km/h 9.7 km/h 93% 0.25 mm 0 W/m2
04:54 9.3 °C 8.2 °C 1005.6 hPa SSW 5.8 km/h 12.9 km/h 93% 0.25 mm 0 W/m2
04:59 9.3 °C 8.2 °C 1005.6 hPa SW 8.2 km/h 12.9 km/h 93% 0.25 mm 0 W/m2
05:04 9.3 °C 8.2 °C 1005.6 hPa SW 9.7 km/h 20.9 km/h 93% 0.25 mm 0 W/m2
05:09 9.3 °C 8.2 °C 1005.6 hPa SW 4.3 km/h 12.9 km/h 93% 0.25 mm 0 W/m2
05:14 9.3 °C 8.2 °C 1005.6 hPa SW 15.8 km/h 32.2 km/h 93% 0.25 mm 0 W/m2
05:19 9.1 °C 8 °C 1005.6 hPa WSW 10.6 km/h 25.7 km/h 93% 0.51 mm 0 W/m2
05:24 8.8 °C 7.7 °C 1005.6 hPa West 12.9 km/h 25.7 km/h 93% 0.51 mm 0 W/m2
05:29 8.7 °C 7.6 °C 1005.6 hPa West 7.1 km/h 19.3 km/h 93% 0.51 mm 0 W/m2
05:34 8.5 °C 7.4 °C 1005.6 hPa West 8.4 km/h 19.3 km/h 93% 0.51 mm 0 W/m2
05:39 8.4 °C 7.4 °C 1005.6 hPa West 7.6 km/h 16.1 km/h 93.4% 0.51 mm 0 W/m2
05:44 8.3 °C 7.4 °C 1005.6 hPa West 6.9 km/h 14.5 km/h 94% 0.51 mm 0 W/m2
05:49 8.3 °C 7.3 °C 1005.6 hPa WNW 5.3 km/h 9.7 km/h 93.6% 0.25 mm 0 W/m2
05:54 8.2 °C 7.2 °C 1005.6 hPa West 8 km/h 11.3 km/h 93.8% 0.25 mm 0 W/m2
05:59 8.2 °C 7.3 °C 1005.6 hPa WSW 4.5 km/h 9.7 km/h 94% 0.25 mm 0 W/m2
06:04 8.1 °C 7.2 °C 1005.6 hPa WSW 4.5 km/h 9.7 km/h 94% 0.25 mm 0 W/m2
06:09 8 °C 7.1 °C 1005.3 hPa WSW 4.2 km/h 8 km/h 94% 0.25 mm 0 W/m2
06:14 7.9 °C 7 °C 1005.3 hPa West 6.3 km/h 11.3 km/h 94% 0.51 mm 0 W/m2
06:19 7.9 °C 7 °C 1005.3 hPa West 4 km/h 9.7 km/h 94% 0.51 mm 0 W/m2
06:24 7.8 °C 6.9 °C 1005.3 hPa West 6.8 km/h 14.5 km/h 94% 0.51 mm 0 W/m2
06:29 7.7 °C 6.8 °C 1005.3 hPa West 6.4 km/h 14.5 km/h 94% 0.51 mm 0 W/m2
06:34 7.6 °C 6.7 °C 1005.3 hPa West 6.9 km/h 11.3 km/h 94% 0.51 mm 0 W/m2
06:39 7.6 °C 6.7 °C 1005.3 hPa West 8.4 km/h 11.3 km/h 94% 0.51 mm 0 W/m2
06:44 7.5 °C 6.6 °C 1005.3 hPa WSW 8.7 km/h 16.1 km/h 94% 0.51 mm 0 W/m2
06:49 7.4 °C 6.5 °C 1005.6 hPa WSW 6.3 km/h 12.9 km/h 94% 0.51 mm 0 W/m2
06:54 7.4 °C 6.5 °C 1005.6 hPa WSW 5.1 km/h 11.3 km/h 94% 0.51 mm 0 W/m2
06:59 7.4 °C 6.5 °C 1005.6 hPa West 6 km/h 11.3 km/h 94% 0.51 mm 0 W/m2
07:04 7.3 °C 6.4 °C 1005.6 hPa WSW 6.8 km/h 12.9 km/h 94% 0.51 mm 0 W/m2
07:09 7.3 °C 6.4 °C 1005.3 hPa West 6 km/h 11.3 km/h 94% 0.51 mm 0 W/m2
07:14 7.3 °C 6.4 °C 1005.3 hPa West 4.8 km/h 9.7 km/h 94% 0.51 mm 0 W/m2
07:19 7.3 °C 6.4 °C 1005.3 hPa West 5.1 km/h 11.3 km/h 94% 0.51 mm 7 W/m2
07:24 7.3 °C 6.4 °C 1005.3 hPa West 4.5 km/h 8 km/h 94% 0.51 mm 7 W/m2
07:29 7.3 °C 6.4 °C 1005.6 hPa West 3.4 km/h 8 km/h 94.2% 0.51 mm 7 W/m2
07:34 7.3 °C 6.4 °C 1005.3 hPa West 4.5 km/h 8 km/h 94.2% 0.51 mm 12 W/m2
07:39 7.3 °C 6.4 °C 1005.3 hPa West 3.7 km/h 8 km/h 94% 0.51 mm 16 W/m2
07:44 7.3 °C 6.4 °C 1005.3 hPa West 4.5 km/h 8 km/h 94% 0.51 mm 12 W/m2
07:49 7.3 °C 6.4 °C 1005.3 hPa WSW 4.5 km/h 11.3 km/h 94% 0.51 mm 26 W/m2
07:54 7.3 °C 6.6 °C 1005.3 hPa WSW 3.9 km/h 6.4 km/h 95% 0.51 mm 33 W/m2
07:59 7.4 °C 6.7 °C 1005.3 hPa WSW 3.9 km/h 6.4 km/h 95% 0.51 mm 30 W/m2
08:04 7.4 °C 6.7 °C 1005.6 hPa WSW 5.5 km/h 8 km/h 95% 0.51 mm 30 W/m2
08:09 7.4 °C 6.7 °C 1005.3 hPa WSW 3.4 km/h 8 km/h 95% 0.51 mm 30 W/m2
08:14 7.4 °C 6.7 °C 1005.3 hPa WSW 2.6 km/h 6.4 km/h 95% 0.51 mm 32 W/m2
08:19 7.4 °C 6.7 °C 1005.3 hPa WSW 5.8 km/h 8 km/h 95% 0.51 mm 40 W/m2
08:24 7.4 °C 6.7 °C 1005.3 hPa WSW 3.9 km/h 6.4 km/h 95% 0.51 mm 30 W/m2
08:29 7.5 °C 6.8 °C 1005.3 hPa WSW 1.8 km/h 6.4 km/h 95% 0.51 mm 30 W/m2
08:34 7.6 °C 6.8 °C 1005.3 hPa WSW 2.6 km/h 6.4 km/h 95% 0.76 mm 33 W/m2
08:39 7.6 °C 6.8 °C 1005.3 hPa WSW 0.8 km/h 3.2 km/h 95% 1.02 mm 44 W/m2
08:44 7.6 °C 6.9 °C 1005 hPa Calm   1.6 km/h 95% 1.27 mm 44 W/m2
08:49 7.6 °C 6.9 °C 1005 hPa WSW 0.3 km/h 1.6 km/h 95% 1.27 mm 32 W/m2
08:54 7.6 °C 6.9 °C 1005 hPa WSW 1.1 km/h 3.2 km/h 95% 1.27 mm 30 W/m2
08:59 7.6 °C 6.9 °C 1005 hPa WSW 1.1 km/h 3.2 km/h 95% 1.27 mm 37 W/m2
09:04 7.7 °C 6.9 °C 1005 hPa Calm   3.2 km/h 95% 1.27 mm 46 W/m2
09:09 7.7 °C 6.9 °C 1004.6 hPa Calm     95% 1.27 mm 46 W/m2
09:14 7.7 °C 6.9 °C 1005 hPa Calm     95% 1.27 mm 42 W/m2
09:19 7.7 °C 6.9 °C 1005 hPa Calm     95% 1.27 mm 33 W/m2
09:24 7.8 °C 7 °C 1005 hPa WSW 1.3 km/h 4.8 km/h 95% 1.02 mm 56 W/m2
09:29 7.8 °C 7 °C 1005 hPa WSW 2.3 km/h 4.8 km/h 95% 1.02 mm 90 W/m2
09:34 7.8 °C 7 °C 1005 hPa WSW 2.1 km/h 4.8 km/h 95% 0.76 mm 98 W/m2
09:39 7.9 °C 7.1 °C 1005 hPa WSW 2.6 km/h 4.8 km/h 95% 0.51 mm 91 W/m2
09:44 7.9 °C 7.1 °C 1005 hPa WSW 1.9 km/h 4.8 km/h 95% 0.25 mm 95 W/m2
09:49 7.9 °C 7.1 °C 1004.6 hPa WSW 1.4 km/h 4.8 km/h 95% 0.25 mm 125 W/m2
09:54 7.9 °C 7.1 °C 1004.6 hPa WSW 1.9 km/h 6.4 km/h 95% 0.25 mm 120 W/m2
09:59 7.9 °C 7.1 °C 1004.6 hPa WSW 3.4 km/h 6.4 km/h 95% 0.25 mm 120 W/m2
10:04 8.1 °C 7.3 °C 1004.6 hPa WSW 2.6 km/h 6.4 km/h 95% 0.25 mm 123 W/m2
10:09 8.1 °C 7.3 °C 1004.6 hPa WSW 4.7 km/h 8 km/h 95% 0.25 mm 118 W/m2
10:14 8.1 °C 7.3 °C 1004.6 hPa WSW 3.7 km/h 8 km/h 95% 0.25 mm 90 W/m2
10:19 8.1 °C 7.3 °C 1004.6 hPa West 4 km/h 8 km/h 95% 0.25 mm 111 W/m2
10:24 8 °C 7.2 °C 1004.6 hPa West 6.1 km/h 12.9 km/h 95% 0.25 mm 120 W/m2
10:29 7.9 °C 7.2 °C 1004.6 hPa West 7.2 km/h 12.9 km/h 95% 0.25 mm 83 W/m2
10:34 8 °C 7.2 °C 1004.6 hPa WNW 8 km/h 14.5 km/h 95% 0.25 mm 67 W/m2
10:39 7.9 °C 7.1 °C 1004.6 hPa West 6.9 km/h 14.5 km/h 95% 0.25 mm 172 W/m2
10:44 7.9 °C 7.2 °C 1004.6 hPa West 2.1 km/h 8 km/h 95% 0.25 mm 200 W/m2
10:49 7.9 °C 7.2 °C 1004.6 hPa WNW 4 km/h 8 km/h 95% 0.25 mm 179 W/m2
10:54 7.7 °C 6.9 °C 1004.6 hPa WNW 7.1 km/h 12.9 km/h 95% 0 mm 181 W/m2
10:59 7.6 °C 6.9 °C 1004.6 hPa WNW 9 km/h 16.1 km/h 95% 0 mm 181 W/m2
11:04 7.6 °C 6.9 °C 1005 hPa NW 8.9 km/h 17.7 km/h 95% 0 mm 141 W/m2
11:09 7.7 °C 6.9 °C 1005 hPa WNW 5.5 km/h 14.5 km/h 95% 0 mm 84 W/m2
11:14 7.6 °C 6.9 °C 1004.6 hPa WNW 6.6 km/h 16.1 km/h 95% 0.25 mm 83 W/m2
11:19 7.4 °C 6.8 °C 1004.6 hPa WNW 7.4 km/h 12.9 km/h 95% 0.25 mm 113 W/m2
11:24 7.4 °C 6.6 °C 1004.6 hPa NW 2.6 km/h 11.3 km/h 94.2% 0.25 mm 174 W/m2
11:29 7.5 °C 6.6 °C 1004.6 hPa WNW 5.1 km/h 11.3 km/h 94% 0.25 mm 183 W/m2
11:34 7.6 °C 6.7 °C 1004.6 hPa WNW 4.3 km/h 9.7 km/h 94% 0.25 mm 169 W/m2
11:39 7.7 °C 6.7 °C 1004.6 hPa WNW 5 km/h 11.3 km/h 93.8% 0.25 mm 158 W/m2
11:44 7.7 °C 6.7 °C 1004.6 hPa WNW 6 km/h 14.5 km/h 93% 0.25 mm 158 W/m2
11:49 7.7 °C 6.6 °C 1004.6 hPa WNW 2.6 km/h 9.7 km/h 93% 0.25 mm 155 W/m2
11:54 7.8 °C 6.7 °C 1004.6 hPa WNW 5.1 km/h 8 km/h 92.6% 0.25 mm 165 W/m2
11:59 7.8 °C 6.6 °C 1004.6 hPa WNW 4.3 km/h 8 km/h 92% 0.25 mm 169 W/m2
12:04 7.9 °C 6.7 °C 1004.6 hPa WNW 3.2 km/h 9.7 km/h 92% 0.25 mm 204 W/m2
12:09 7.9 °C 6.6 °C 1004.6 hPa WNW 6.8 km/h 12.9 km/h 91.2% 0.25 mm 206 W/m2
12:14 8.1 °C 6.7 °C 1004.6 hPa West 2.4 km/h 9.7 km/h 91% 0 mm 156 W/m2
12:19 8.2 °C 6.7 °C 1004.6 hPa West 4.5 km/h 9.7 km/h 90% 0 mm 121 W/m2
12:24 8.1 °C 6.5 °C 1004.6 hPa WNW 6.1 km/h 9.7 km/h 89.6% 0 mm 116 W/m2
12:29 8.1 °C 6.4 °C 1004.6 hPa WNW 4.5 km/h 9.7 km/h 89% 0 mm 97 W/m2
12:34 8.1 °C 6.4 °C 1004.3 hPa WNW 8.7 km/h 12.9 km/h 89% 0 mm 109 W/m2
12:39 7.9 °C 6.1 °C 1004.3 hPa NW 5.8 km/h 11.3 km/h 88% 0 mm 104 W/m2
12:44 7.9 °C 5.9 °C 1004.6 hPa West 5.6 km/h 12.9 km/h 87.6% 0 mm 98 W/m2
12:49 7.8 °C 5.8 °C 1004.6 hPa West 5.6 km/h 16.1 km/h 87% 0 mm 91 W/m2
12:54 7.8 °C 5.6 °C 1004.6 hPa West 6.4 km/h 12.9 km/h 86% 0 mm 104 W/m2
12:59 7.8 °C 5.6 °C 1004.3 hPa West 6.8 km/h 14.5 km/h 86% 0 mm 116 W/m2
13:04 7.8 °C 5.5 °C 1004.3 hPa West 6.9 km/h 14.5 km/h 85.6% 0 mm 120 W/m2
13:09 7.8 °C 5.4 °C 1004.3 hPa West 5.1 km/h 12.9 km/h 85% 0 mm 139 W/m2
13:14 7.8 °C 5.4 °C 1004.3 hPa West 8.4 km/h 12.9 km/h 85% 0 mm 139 W/m2
13:19 7.8 °C 5.4 °C 1004.3 hPa West 6.9 km/h 12.9 km/h 84.2% 0 mm 130 W/m2
13:24 7.8 °C 5.4 °C 1004.3 hPa WNW 7.1 km/h 12.9 km/h 84.4% 0 mm 120 W/m2
13:29 7.9 °C 5.4 °C 1004.3 hPa West 6 km/h 9.7 km/h 84% 0 mm 116 W/m2
13:34 7.9 °C 5.4 °C 1004.3 hPa West 7.2 km/h 14.5 km/h 84% 0 mm 107 W/m2
13:39 7.8 °C 5.1 °C 1003.9 hPa West 5.1 km/h 16.1 km/h 83% 0 mm 105 W/m2
13:44 7.8 °C 4.9 °C 1003.9 hPa West 5.5 km/h 11.3 km/h 82.2% 0 mm 125 W/m2
13:49 7.8 °C 4.9 °C 1003.9 hPa West 7.2 km/h 11.3 km/h 82% 0 mm 127 W/m2
13:54 7.8 °C 4.9 °C 1003.9 hPa West 5.1 km/h 11.3 km/h 82% 0 mm 149 W/m2
13:59 7.9 °C 5 °C 1003.9 hPa West 3.9 km/h 9.7 km/h 82% 0 mm 163 W/m2
14:04 8 °C 5 °C 1003.9 hPa West 5.1 km/h 9.7 km/h 81.6% 0 mm 176 W/m2
14:09 8 °C 4.9 °C 1003.9 hPa WSW 4.7 km/h 9.7 km/h 81.2% 0 mm 176 W/m2
14:14 8 °C 4.9 °C 1003.9 hPa West 6.4 km/h 11.3 km/h 81% 0 mm 200 W/m2
14:19 8.1 °C 5 °C 1003.9 hPa West 5.6 km/h 8 km/h 81% 0 mm 176 W/m2
14:24 8.2 °C 5.1 °C 1003.9 hPa West 6 km/h 11.3 km/h 81.4% 0 mm 225 W/m2
14:29 8.1 °C 5.1 °C 1003.9 hPa West 7.2 km/h 12.9 km/h 81.2% 0 mm 199 W/m2
14:34 8.1 °C 5 °C 1003.6 hPa West 6.4 km/h 12.9 km/h 81% 0 mm 197 W/m2
14:39 8.2 °C 5.1 °C 1003.6 hPa West 6 km/h 12.9 km/h 81% 0 mm 178 W/m2
14:44 8.1 °C 5 °C 1003.6 hPa West 7.2 km/h 12.9 km/h 81% 0 mm 125 W/m2
14:49 8.1 °C 4.9 °C 1003.6 hPa West 7.2 km/h 14.5 km/h 80.6% 0 mm 158 W/m2
14:54 8.1 °C 4.9 °C 1003.6 hPa WNW 5.3 km/h 12.9 km/h 80% 0 mm 155 W/m2
14:59 8.1 °C 4.8 °C 1003.6 hPa West 6 km/h 12.9 km/h 79.6% 0 mm 123 W/m2
15:04 8 °C 4.6 °C 1003.6 hPa West 7.7 km/h 14.5 km/h 79% 0 mm 105 W/m2
15:09 7.9 °C 4.5 °C 1003.6 hPa West 8.2 km/h 14.5 km/h 79% 0 mm 98 W/m2
15:14 7.9 °C 4.5 °C 1003.6 hPa West 8.9 km/h 14.5 km/h 79% 0 mm 98 W/m2
15:19 7.9 °C 4.5 °C 1003.6 hPa West 7.1 km/h 16.1 km/h 79% 0 mm 105 W/m2
15:24 7.9 °C 4.5 °C 1003.6 hPa WSW 9.2 km/h 14.5 km/h 79% 0 mm 98 W/m2
15:29 7.9 °C 4.5 °C 1003.3 hPa West 6.6 km/h 12.9 km/h 79% 0 mm 105 W/m2
15:34 7.8 °C 4.4 °C 1003.3 hPa West 7.9 km/h 14.5 km/h 79% 0 mm 105 W/m2
15:39 7.8 °C 4.4 °C 1003.3 hPa West 10 km/h 17.7 km/h 79% 0 mm 100 W/m2
15:44 7.8 °C 4.4 °C 1003.3 hPa West 9.3 km/h 17.7 km/h 79% 0 mm 111 W/m2
15:49 7.9 °C 4.6 °C 1003.3 hPa West 5.8 km/h 11.3 km/h 79.6% 0 mm 116 W/m2
15:54 7.9 °C 4.7 °C 1003.3 hPa West 8.5 km/h 12.9 km/h 80% 0 mm 111 W/m2
15:59 7.9 °C 4.7 °C 1003.3 hPa West 10.9 km/h 17.7 km/h 80% 0 mm 111 W/m2
16:04 7.8 °C 4.7 °C 1003.3 hPa WSW 9 km/h 17.7 km/h 80% 0 mm 100 W/m2
16:09 7.8 °C 4.6 °C 1003.3 hPa West 10.9 km/h 20.9 km/h 80% 0 mm 81 W/m2
16:14 7.8 °C 4.7 °C 1003.6 hPa West 9.7 km/h 17.7 km/h 81% 0 mm 81 W/m2
16:19 7.7 °C 4.6 °C 1003.6 hPa West 8.4 km/h 22.5 km/h 81% 0 mm 77 W/m2
16:24 7.6 °C 4.5 °C 1003.3 hPa West 10.9 km/h 19.3 km/h 81% 0 mm 72 W/m2
16:29 7.6 °C 4.5 °C 1003.3 hPa West 11.1 km/h 19.3 km/h 81% 0 mm 72 W/m2
16:33 7.6 °C 4.5 °C 1003.3 hPa West 11.1 km/h 11.3 km/h 81% 0 mm 72 W/m2
16:39 7.6 °C 4.5 °C 1003.3 hPa West 12.2 km/h 19.3 km/h 81% 0 mm 72 W/m2
16:44 7.5 °C 4.5 °C 1003.3 hPa West 10.3 km/h 16.1 km/h 81% 0 mm 46 W/m2
16:49 7.4 °C 4.4 °C 1003.3 hPa West 7.6 km/h 14.5 km/h 81% 0 mm 37 W/m2
16:54 7.4 °C 4.5 °C 1003.6 hPa West 9.7 km/h 17.7 km/h 82% 0 mm 39 W/m2
16:59 7.3 °C 4.4 °C 1003.6 hPa West 8.4 km/h 17.7 km/h 82% 0 mm 32 W/m2
17:04 7.3 °C 4.5 °C 1003.6 hPa WSW 9.7 km/h 19.3 km/h 82.6% 0 mm 25 W/m2
17:09 7.3 °C 4.6 °C 1003.6 hPa West 11.6 km/h 20.9 km/h 83% 0 mm 25 W/m2
17:14 7.2 °C 4.4 °C 1003.3 hPa West 10.9 km/h 24.1 km/h 83% 0 mm 19 W/m2
17:19 7 °C 4.3 °C 1003.3 hPa WSW 8.4 km/h 16.1 km/h 83% 0 mm 12 W/m2
17:24 6.8 °C 4 °C 1003.3 hPa West 10 km/h 17.7 km/h 82.4% 0 mm 7 W/m2
17:29 6.6 °C 3.7 °C 1003.3 hPa West 6.6 km/h 14.5 km/h 81.8% 0 mm 7 W/m2
17:34 6.6 °C 3.6 °C 1003.3 hPa West 8.5 km/h 12.9 km/h 81% 0 mm 5 W/m2
17:39 6.5 °C 3.5 °C 1003.3 hPa West 10.3 km/h 19.3 km/h 81% 0 mm 5 W/m2
17:44 6.3 °C 3.2 °C 1003.3 hPa West 10.9 km/h 17.7 km/h 80% 0 mm 0 W/m2
17:49 6.2 °C 3.2 °C 1003.6 hPa West 9.3 km/h 19.3 km/h 80.8% 0 mm 0 W/m2
17:54 6.2 °C 3.2 °C 1003.6 hPa West 13.8 km/h 22.5 km/h 81% 0 mm 0 W/m2
17:59 6.1 °C 3.2 °C 1003.6 hPa West 7.6 km/h 22.5 km/h 81.8% 0 mm 0 W/m2
18:04 5.9 °C 3.2 °C 1003.3 hPa West 7.1 km/h 17.7 km/h 82.2% 0 mm 0 W/m2
18:09 5.9 °C 3.2 °C 1003.3 hPa WSW 10 km/h 20.9 km/h 83% 0 mm 0 W/m2
18:14 5.8 °C 3.2 °C 1003.3 hPa West 6.8 km/h 12.9 km/h 83.4% 0 mm 0 W/m2
18:19 5.8 °C 3.3 °C 1003.3 hPa West 6.9 km/h 16.1 km/h 84% 0 mm 0 W/m2
18:24 5.7 °C 3.2 °C 1003.3 hPa West 9.5 km/h 14.5 km/h 84% 0 mm 0 W/m2
18:29 5.7 °C 3.2 °C 1003.3 hPa West 5.5 km/h 9.7 km/h 84% 0 mm 0 W/m2
18:34 5.6 °C 3.1 °C 1003.3 hPa West 7.2 km/h 14.5 km/h 84% 0 mm 0 W/m2
18:39 5.6 °C 3.1 °C 1003.3 hPa West 7.6 km/h 14.5 km/h 84% 0 mm 0 W/m2
18:44 5.6 °C 3.1 °C 1003.3 hPa WSW 6.4 km/h 17.7 km/h 84% 0 mm 0 W/m2
18:49 5.6 °C 3.1 °C 1003.3 hPa West 6 km/h 9.7 km/h 84% 0 mm 0 W/m2
18:54 5.4 °C 2.9 °C 1003.3 hPa West 3.4 km/h 12.9 km/h 84% 0 mm 0 W/m2
18:59 5.4 °C 2.9 °C 1003.3 hPa West 4.7 km/h 9.7 km/h 84% 0 mm 0 W/m2
19:04 5.4 °C 2.9 °C 1003.3 hPa West 4 km/h 8 km/h 84% 0 mm 0 W/m2
19:09 5.3 °C 2.8 °C 1003.3 hPa WSW 4.8 km/h 9.7 km/h 84% 0 mm 0 W/m2
19:14 5.3 °C 2.8 °C 1003.3 hPa WSW 3.9 km/h 8 km/h 84% 0 mm 0 W/m2
19:19 5.3 °C 2.8 °C 1003.3 hPa WSW 4.5 km/h 8 km/h 84% 0 mm 0 W/m2
19:24 5.2 °C 2.7 °C 1003.3 hPa WSW 3.4 km/h 8 km/h 84% 0 mm 0 W/m2
19:29 5.2 °C 2.8 °C 1003.3 hPa WSW 2.9 km/h 8 km/h 84.8% 0 mm 0 W/m2
19:34 5.1 °C 2.8 °C 1002.9 hPa WSW 5.1 km/h 8 km/h 85% 0 mm 0 W/m2
19:39 5.1 °C 2.8 °C 1003.3 hPa WSW 6 km/h 8 km/h 85% 0 mm 0 W/m2
19:44 5 °C 2.7 °C 1002.9 hPa WSW 6.4 km/h 9.7 km/h 85% 0 mm 0 W/m2
19:49 5 °C 2.8 °C 1002.9 hPa WSW 6.9 km/h 11.3 km/h 85.6% 0 mm 0 W/m2
19:54 5 °C 2.9 °C 1002.9 hPa WSW 4.7 km/h 14.5 km/h 86% 0 mm 0 W/m2
19:59 4.9 °C 2.8 °C 1002.9 hPa West 6.8 km/h 11.3 km/h 86% 0 mm 0 W/m2
20:04 4.9 °C 2.8 °C 1002.9 hPa WSW 4 km/h 12.9 km/h 86% 0 mm 0 W/m2
20:09 4.8 °C 2.8 °C 1002.9 hPa West 4.5 km/h 12.9 km/h 86.6% 0 mm 0 W/m2
20:14 4.8 °C 2.8 °C 1002.9 hPa WSW 5.1 km/h 9.7 km/h 87% 0 mm 0 W/m2
20:19 4.8 °C 2.8 °C 1002.9 hPa SW 3.9 km/h 9.7 km/h 87% 0 mm 0 W/m2
20:24 4.7 °C 2.7 °C 1002.9 hPa SW 4 km/h 8 km/h 87% 0 mm 0 W/m2
20:29 4.7 °C 2.7 °C 1002.9 hPa WSW 2.4 km/h 8 km/h 87% 0 mm 0 W/m2
20:34 4.7 °C 2.8 °C 1002.9 hPa WSW 2.6 km/h 8 km/h 87.4% 0 mm 0 W/m2
20:39 4.7 °C 2.8 °C 1002.9 hPa WSW 4.5 km/h 8 km/h 88% 0 mm 0 W/m2
20:44 4.6 °C 2.8 °C 1002.9 hPa WSW 4 km/h 8 km/h 88% 0 mm 0 W/m2
20:49 4.4 °C 2.7 °C 1002.9 hPa WSW 3.2 km/h 6.4 km/h 88% 0 mm 0 W/m2
20:54 4.3 °C 2.6 °C 1002.6 hPa WSW 5.3 km/h 8 km/h 88% 0 mm 0 W/m2
20:59 4.3 °C 2.5 °C 1002.6 hPa WSW 4 km/h 9.7 km/h 88% 0 mm 0 W/m2
21:04 4.2 °C 2.4 °C 1002.6 hPa WSW 3.2 km/h 8 km/h 88% 0 mm 0 W/m2
21:09 4.2 °C 2.3 °C 1002.6 hPa WSW 4 km/h 8 km/h 88% 0 mm 0 W/m2
21:14 4.1 °C 2.3 °C 1002.6 hPa West 3.7 km/h 12.9 km/h 88% 0 mm 0 W/m2
21:19 4 °C 2.2 °C 1002.6 hPa WSW 5.1 km/h 12.9 km/h 88% 0 mm 0 W/m2
21:24 3.9 °C 2.1 °C 1002.6 hPa WSW 5.1 km/h 14.5 km/h 87.6% 0 mm 0 W/m2
21:29 3.9 °C 1.9 °C 1002.6 hPa SW 6.3 km/h 14.5 km/h 87% 0 mm 0 W/m2
21:34 3.9 °C 1.9 °C 1002.6 hPa SW 6.3 km/h 14.5 km/h 87% 0 mm 0 W/m2
21:39 3.9 °C 1.9 °C 1002.3 hPa WSW 7.1 km/h 12.9 km/h 87% 0 mm 0 W/m2
21:44 3.9 °C 1.9 °C 1002.6 hPa SW 6.8 km/h 14.5 km/h 87% 0 mm 0 W/m2
21:49 3.9 °C 1.8 °C 1002.3 hPa SW 3.7 km/h 9.7 km/h 86.4% 0 mm 0 W/m2
21:54 3.9 °C 1.8 °C 1002.3 hPa SW 5.8 km/h 12.9 km/h 86% 0 mm 0 W/m2
21:59 3.9 °C 1.8 °C 1002.3 hPa SW 5.6 km/h 9.7 km/h 86% 0 mm 0 W/m2
22:04 3.8 °C 1.7 °C 1002.3 hPa SSW 4.2 km/h 9.7 km/h 86% 0 mm 0 W/m2
22:09 3.8 °C 1.7 °C 1002.3 hPa SSW 3.1 km/h 8 km/h 86% 0 mm 0 W/m2
22:14 3.7 °C 1.6 °C 1001.9 hPa SSW 3.2 km/h 6.4 km/h 86% 0 mm 0 W/m2
22:19 3.7 °C 1.6 °C 1001.9 hPa South 2.9 km/h 9.7 km/h 86% 0 mm 0 W/m2
22:24 3.6 °C 1.5 °C 1001.9 hPa SSW 3.7 km/h 11.3 km/h 86% 0 mm 0 W/m2
22:29 3.5 °C 1.4 °C 1001.9 hPa SSW 6 km/h 12.9 km/h 86% 0 mm 0 W/m2
22:34 3.5 °C 1.4 °C 1001.9 hPa SSW 6 km/h 11.3 km/h 86% 0 mm 0 W/m2
22:39 3.4 °C 1.3 °C 1001.9 hPa South 5 km/h 14.5 km/h 86% 0 mm 0 W/m2
22:44 3.4 °C 1.3 °C 1001.9 hPa South 6.4 km/h 14.5 km/h 86% 0 mm 0 W/m2
22:49 3.3 °C 1.2 °C 1001.9 hPa SSW 6.4 km/h 16.1 km/h 86% 0 mm 0 W/m2
22:54 3.3 °C 1.3 °C 1001.9 hPa SSW 4 km/h 11.3 km/h 86.6% 0 mm 0 W/m2
22:59 3.3 °C 1.2 °C 1001.6 hPa SW 5.3 km/h 11.3 km/h 86.4% 0 mm 0 W/m2
23:04 3.2 °C 1.2 °C 1001.6 hPa SSW 4.7 km/h 9.7 km/h 87% 0 mm 0 W/m2
23:09 3.2 °C 1.2 °C 1001.6 hPa SSW 9 km/h 14.5 km/h 87% 0 mm 0 W/m2
23:14 3.2 °C 1.2 °C 1001.6 hPa SSW 7.6 km/h 11.3 km/h 87% 0 mm 0 W/m2
23:19 3.3 °C 1.3 °C 1001.6 hPa South 7.7 km/h 17.7 km/h 87% 0 mm 0 W/m2
23:24 3.3 °C 1.3 °C 1001.2 hPa SSW 9.7 km/h 17.7 km/h 87% 0 mm 0 W/m2
23:29 3.3 °C 1.3 °C 1001.2 hPa SSW 8.5 km/h 20.9 km/h 87% 0 mm 0 W/m2
23:34 3.2 °C 1.2 °C 1001.2 hPa South 5.6 km/h 11.3 km/h 87% 0 mm 0 W/m2
23:39 3.2 °C 1.2 °C 1001.2 hPa SSW 7.6 km/h 16.1 km/h 87% 0 mm 0 W/m2
23:44 3.1 °C 1.1 °C 1001.2 hPa SSW 9.5 km/h 16.1 km/h 87% 0 mm 0 W/m2
23:49 3.1 °C 1.1 °C 1001.2 hPa South 7.9 km/h 16.1 km/h 87% 0 mm 0 W/m2
23:54 3.1 °C 1.1 °C 1001.2 hPa SSW 9 km/h 16.1 km/h 87% 0 mm 0 W/m2
23:59 2.9 °C 1 °C 1000.9 hPa SSW 9 km/h 16.1 km/h 87% 0 mm 0 W/m2
Bath Spa Weather
Compliments of Weather Underground - 2 mb